createdAt,value
2023-05-14T00:01:59.688Z,100965.00
2023-05-14T00:05:09.576Z,100961.84
2023-05-14T00:08:20.702Z,100956.59
2023-05-14T00:11:29.199Z,100950.34
2023-05-14T00:14:37.694Z,100947.66
2023-05-14T00:17:46.187Z,100944.94
2023-05-14T00:20:55.700Z,100941.41
2023-05-14T00:24:04.419Z,100932.94
2023-05-14T00:27:12.681Z,100943.75
2023-05-14T00:30:21.350Z,100937.78
2023-05-14T00:33:29.746Z,100939.66
2023-05-14T00:36:52.005Z,100934.56
2023-05-14T00:40:01.227Z,100937.66
2023-05-14T00:43:09.742Z,100930.19
2023-05-14T00:46:24.777Z,100931.50
2023-05-14T00:49:40.719Z,100930.03
2023-05-14T00:52:48.801Z,100922.78
2023-05-14T00:56:03.725Z,100926.16
2023-05-14T00:59:05.714Z,100926.16
2023-05-14T01:02:20.815Z,100930.19
2023-05-14T01:05:28.413Z,100919.06
2023-05-14T01:08:56.750Z,100909.28
2023-05-14T01:12:26.734Z,100908.28
2023-05-14T01:15:44.783Z,100902.03
2023-05-14T01:18:50.520Z,100896.12
2023-05-14T01:22:05.775Z,100898.50
2023-05-14T01:25:09.222Z,100897.97
2023-05-14T01:28:29.716Z,100895.56
2023-05-14T01:31:41.503Z,100891.03
2023-05-14T01:34:59.456Z,100887.16
2023-05-14T01:38:04.690Z,100884.25
2023-05-14T01:41:24.187Z,100882.72
2023-05-14T01:44:34.777Z,100850.87
2023-05-14T01:47:43.417Z,100876.72
2023-05-14T01:50:51.744Z,100863.53
2023-05-14T01:54:07.022Z,100862.41
2023-05-14T01:57:22.044Z,100852.81
2023-05-14T02:00:25.081Z,100837.63
2023-05-14T02:03:39.922Z,100840.16
2023-05-14T02:06:41.683Z,100836.97
2023-05-14T02:09:56.752Z,100833.25
2023-05-14T02:12:58.445Z,100835.56
2023-05-14T02:16:12.843Z,100834.19
2023-05-14T02:19:14.619Z,100836.53
2023-05-14T02:22:29.801Z,100825.41
2023-05-14T02:25:37.791Z,100829.81
2023-05-14T02:28:46.297Z,100828.12
2023-05-14T02:32:00.908Z,100833.75
2023-05-14T02:35:09.577Z,100832.84
2023-05-14T02:38:25.777Z,100827.47
2023-05-14T02:41:34.270Z,100829.31
2023-05-14T02:44:42.801Z,100828.19
2023-05-14T02:47:57.821Z,100831.88
2023-05-14T02:51:06.760Z,100829.19
2023-05-14T02:54:21.802Z,100831.56
2023-05-14T02:57:29.761Z,100829.87
2023-05-14T03:00:39.087Z,100825.16
2023-05-14T03:03:47.792Z,100824.47
2023-05-14T03:07:02.911Z,100821.62
2023-05-14T03:10:12.111Z,100820.37
2023-05-14T03:13:20.270Z,100809.59
2023-05-14T03:16:34.875Z,100809.59
2023-05-14T03:19:36.650Z,100809.47
2023-05-14T03:22:53.078Z,100817.56
2023-05-14T03:25:54.672Z,100823.78
2023-05-14T03:29:10.083Z,100828.53
2023-05-14T03:32:19.329Z,100825.16
2023-05-14T03:35:40.824Z,100815.72
2023-05-14T03:38:56.177Z,100812.75
2023-05-14T03:42:10.827Z,100815.38
2023-05-14T03:45:19.518Z,100823.41
2023-05-14T03:48:33.903Z,100816.31
2023-05-14T03:51:48.806Z,100823.78
2023-05-14T03:54:57.313Z,100824.78
2023-05-14T03:58:12.658Z,100804.75
2023-05-14T04:01:14.902Z,100803.19
2023-05-14T04:04:30.899Z,100794.81
2023-05-14T04:07:38.818Z,100803.84
2023-05-14T04:10:53.845Z,100804.69
2023-05-14T04:14:08.833Z,100805.22
2023-05-14T04:17:10.461Z,100814.09
2023-05-14T04:20:24.959Z,100805.53
2023-05-14T04:23:33.831Z,100805.38
2023-05-14T04:26:42.332Z,100798.38
2023-05-14T04:29:56.850Z,100800.47
2023-05-14T04:33:11.826Z,100793.75
2023-05-14T04:36:20.056Z,100793.41
2023-05-14T04:39:34.885Z,100781.88
2023-05-14T04:42:37.385Z,100786.50
2023-05-14T04:45:52.141Z,100789.03
2023-05-14T04:49:00.384Z,100788.34
2023-05-14T04:52:09.137Z,100800.47
2023-05-14T04:55:18.167Z,100792.56
2023-05-14T04:58:34.732Z,100783.97
2023-05-14T05:01:43.904Z,100790.72
2023-05-14T05:04:58.900Z,100788.19
2023-05-14T05:08:00.648Z,100790.41
2023-05-14T05:11:14.875Z,100779.47
2023-05-14T05:14:23.427Z,100788.50
2023-05-14T05:17:32.929Z,100789.34
2023-05-14T05:20:47.887Z,100780.25
2023-05-14T05:23:50.191Z,100789.03
2023-05-14T05:27:04.846Z,100777.97
2023-05-14T05:30:07.200Z,100772.25
2023-05-14T05:33:21.945Z,100763.56
2023-05-14T05:36:36.871Z,100774.19
2023-05-14T05:39:45.353Z,100767.78
2023-05-14T05:42:53.872Z,100778.91
2023-05-14T05:46:02.568Z,100775.25
2023-05-14T05:49:10.925Z,100767.66
2023-05-14T05:52:19.591Z,100772.16
2023-05-14T05:55:27.903Z,100772.00
2023-05-14T05:58:42.885Z,100772.25
2023-05-14T06:01:51.412Z,100772.84
2023-05-14T06:04:59.926Z,100778.56
2023-05-14T06:08:08.427Z,100777.34
2023-05-14T06:11:16.940Z,100781.88
2023-05-14T06:14:31.868Z,100780.88
2023-05-14T06:17:33.696Z,100789.87
2023-05-14T06:20:49.211Z,100784.47
2023-05-14T06:23:50.894Z,100780.78
2023-05-14T06:27:05.877Z,100788.97
2023-05-14T06:30:22.088Z,100783.97
2023-05-14T06:33:36.955Z,100789.72
2023-05-14T06:36:52.968Z,100792.84
2023-05-14T06:40:12.196Z,100784.97
2023-05-14T06:43:19.909Z,100784.62
2023-05-14T06:46:34.882Z,100784.38
2023-05-14T06:49:43.494Z,100773.22
2023-05-14T06:52:57.949Z,100766.03
2023-05-14T06:55:59.707Z,100764.00
2023-05-14T06:59:13.932Z,100759.94
2023-05-14T07:02:21.960Z,100754.41
2023-05-14T07:05:30.476Z,100746.59
2023-05-14T07:08:39.217Z,100728.72
2023-05-14T07:11:47.454Z,100751.59
2023-05-14T07:14:55.886Z,100748.09
2023-05-14T07:18:05.613Z,100744.09
2023-05-14T07:21:20.004Z,100743.13
2023-05-14T07:24:28.592Z,100748.16
2023-05-14T07:27:42.939Z,100739.25
2023-05-14T07:30:51.059Z,100738.16
2023-05-14T07:33:59.437Z,100730.22
2023-05-14T07:37:13.938Z,100724.53
2023-05-14T07:40:16.839Z,100727.69
2023-05-14T07:43:32.953Z,100725.37
2023-05-14T07:46:40.946Z,100725.03
2023-05-14T07:49:56.631Z,100730.12
2023-05-14T07:52:58.416Z,100723.84
2023-05-14T07:56:13.937Z,100713.56
2023-05-14T07:59:15.663Z,100710.34
2023-05-14T08:02:30.394Z,100704.44
2023-05-14T08:05:38.978Z,100701.41
2023-05-14T08:08:53.942Z,100701.75
2023-05-14T08:12:04.681Z,100685.53
2023-05-14T08:15:13.939Z,100693.47
2023-05-14T08:18:22.493Z,100688.37
2023-05-14T08:21:43.995Z,100678.75
2023-05-14T08:24:59.263Z,100673.34
2023-05-14T08:28:08.130Z,100672.03
2023-05-14T08:31:15.983Z,100674.37
2023-05-14T08:34:24.735Z,100667.97
2023-05-14T08:37:46.948Z,100665.09
2023-05-14T08:40:56.997Z,100666.09
2023-05-14T08:44:19.140Z,100668.31
2023-05-14T08:47:33.490Z,100656.81
2023-05-14T08:50:48.309Z,100633.16
2023-05-14T08:53:57.061Z,100639.38
2023-05-14T08:57:32.043Z,100641.59
2023-05-14T09:00:33.861Z,100640.41
2023-05-14T09:03:50.025Z,100643.59
2023-05-14T09:07:01.952Z,100639.88
2023-05-14T09:10:18.970Z,100646.47
2023-05-14T09:13:33.994Z,100649.69
2023-05-14T09:16:36.623Z,100638.56
2023-05-14T09:19:53.116Z,100638.56
2023-05-14T09:22:54.934Z,100634.66
2023-05-14T09:26:12.313Z,100630.44
2023-05-14T09:29:21.067Z,100626.06
2023-05-14T09:32:36.116Z,100620.66
2023-05-14T09:35:44.992Z,100625.03
2023-05-14T09:39:03.379Z,100618.44
2023-05-14T09:42:17.980Z,100624.19
2023-05-14T09:45:19.719Z,100618.31
2023-05-14T09:48:36.015Z,100606.66
2023-05-14T09:51:51.037Z,100600.88
2023-05-14T09:55:00.012Z,100599.19
2023-05-14T09:58:08.738Z,100606.28
2023-05-14T10:01:18.124Z,100590.72
2023-05-14T10:04:26.717Z,100602.87
2023-05-14T10:07:46.969Z,100593.25
2023-05-14T10:10:58.549Z,100578.69
2023-05-14T10:14:15.303Z,100567.25
2023-05-14T10:17:33.014Z,100525.19
2023-05-14T10:20:45.401Z,100540.16
2023-05-14T10:23:53.864Z,100526.62
2023-05-14T10:27:03.304Z,100522.81
2023-05-14T10:30:12.363Z,100498.81
2023-05-14T10:33:22.091Z,100491.13
2023-05-14T10:36:47.811Z,100506.78
2023-05-14T10:40:09.318Z,100535.28
2023-05-14T10:43:11.197Z,100538.72
2023-05-14T10:46:26.130Z,100532.81
2023-05-14T10:49:45.117Z,100539.75
2023-05-14T10:53:03.477Z,100533.19
2023-05-14T10:56:20.086Z,100527.75
2023-05-14T10:59:34.302Z,100518.44
2023-05-14T11:02:46.592Z,100527.09
2023-05-14T11:05:55.121Z,100509.06
2023-05-14T11:09:13.074Z,100517.12
2023-05-14T11:12:14.760Z,100517.50
2023-05-14T11:15:31.062Z,100506.25
2023-05-14T11:18:41.068Z,100507.34
2023-05-14T11:21:57.078Z,100507.38
2023-05-14T11:25:06.030Z,100493.03
2023-05-14T11:28:14.528Z,100492.53
2023-05-14T11:31:29.100Z,100498.59
2023-05-14T11:34:47.119Z,100496.38
2023-05-14T11:38:10.192Z,100486.00
2023-05-14T11:41:14.669Z,100493.28
2023-05-14T11:44:29.105Z,100489.97
2023-05-14T11:47:44.183Z,100493.34
2023-05-14T11:50:59.043Z,100476.44
2023-05-14T11:54:00.690Z,100489.97
2023-05-14T11:57:19.104Z,100489.28
2023-05-14T12:00:34.110Z,100482.78
2023-05-14T12:03:49.167Z,100474.16
2023-05-14T12:07:06.081Z,100468.44
2023-05-14T12:10:21.698Z,100465.09
2023-05-14T12:13:27.175Z,100459.34
2023-05-14T12:16:42.129Z,100455.97
2023-05-14T12:20:04.003Z,100448.38
2023-05-14T12:23:22.103Z,100450.37
2023-05-14T12:26:40.078Z,100441.91
2023-05-14T12:29:43.330Z,100435.47
2023-05-14T12:32:58.917Z,100434.81
2023-05-14T12:36:07.384Z,100431.09
2023-05-14T12:39:28.086Z,100430.78
2023-05-14T12:42:29.891Z,100435.88
2023-05-14T12:45:44.122Z,100424.88
2023-05-14T12:48:48.825Z,100432.50
2023-05-14T12:55:33.085Z,100434.38
2023-05-14T12:58:35.605Z,100424.25
2023-05-14T13:01:50.105Z,100415.66
2023-05-14T13:05:05.119Z,100406.25
2023-05-14T13:08:13.142Z,100395.44
2023-05-14T13:11:22.449Z,100384.78
2023-05-14T13:14:37.253Z,100384.62
2023-05-14T13:17:45.117Z,100380.91
2023-05-14T13:21:00.145Z,100390.03
2023-05-14T13:24:08.493Z,100391.91
2023-05-14T13:27:16.612Z,100370.78
2023-05-14T13:30:25.097Z,100358.31
2023-05-14T13:33:36.201Z,100359.31
2023-05-14T13:36:44.149Z,100357.97
2023-05-14T13:39:59.106Z,100347.12
2023-05-14T13:43:01.561Z,100339.56
2023-05-14T13:46:16.363Z,100337.34
2023-05-14T13:49:40.240Z,100332.31
2023-05-14T13:52:48.314Z,100329.78
2023-05-14T13:55:56.877Z,100331.28
2023-05-14T13:59:11.178Z,100321.91
2023-05-14T14:02:12.877Z,100311.44
2023-05-14T14:05:27.338Z,100315.94
2023-05-14T14:08:36.132Z,100318.19
2023-05-14T14:11:51.197Z,100314.13
2023-05-14T14:14:59.184Z,100309.75
2023-05-14T14:18:07.673Z,100299.16
2023-05-14T14:21:16.149Z,100308.09
2023-05-14T14:24:31.154Z,100307.78
2023-05-14T14:27:32.778Z,100311.34
2023-05-14T14:30:47.175Z,100301.00
2023-05-14T14:33:49.360Z,100303.72
2023-05-14T14:37:04.168Z,100306.94
2023-05-14T14:40:12.992Z,100308.47
2023-05-14T14:43:21.240Z,100301.28
2023-05-14T14:46:36.164Z,100301.09
2023-05-14T14:49:37.977Z,100288.91
2023-05-14T14:52:52.214Z,100278.16
2023-05-14T14:55:53.892Z,100289.62
2023-05-14T14:59:08.181Z,100284.09
2023-05-14T15:02:19.961Z,100283.94
2023-05-14T15:05:28.464Z,100270.06
2023-05-14T15:08:37.354Z,100264.56
2023-05-14T15:11:52.231Z,100260.34
2023-05-14T15:15:01.065Z,100257.31
2023-05-14T15:18:19.398Z,100256.31
2023-05-14T15:21:34.266Z,100252.28
2023-05-14T15:24:35.906Z,100244.37
2023-05-14T15:27:50.197Z,100244.56
2023-05-14T15:30:59.851Z,100244.50
2023-05-14T15:34:14.151Z,100233.78
2023-05-14T15:37:43.242Z,100239.69
2023-05-14T15:40:44.924Z,100246.25
2023-05-14T15:43:59.169Z,100244.91
2023-05-14T15:47:00.784Z,100230.37
2023-05-14T15:50:15.185Z,100241.16
2023-05-14T15:53:23.306Z,100237.50
2023-05-14T15:56:39.753Z,100216.94
2023-05-14T15:59:41.378Z,100213.91
2023-05-14T16:02:56.238Z,100195.03
2023-05-14T16:05:57.982Z,100179.34
2023-05-14T16:09:12.210Z,100178.84
2023-05-14T16:12:20.210Z,100172.44
2023-05-14T16:15:28.726Z,100187.78
2023-05-14T16:18:43.266Z,100187.44
2023-05-14T16:21:45.082Z,100190.97
2023-05-14T16:25:03.286Z,100200.41
2023-05-14T16:28:11.773Z,100195.19
2023-05-14T16:31:20.217Z,100191.97
2023-05-14T16:34:28.791Z,100188.78
2023-05-14T16:37:37.180Z,100186.25
2023-05-14T16:40:45.760Z,100179.50
2023-05-14T16:44:00.269Z,100173.28
2023-05-14T16:47:02.033Z,100171.03
2023-05-14T16:50:16.203Z,100165.50
2023-05-14T16:53:26.159Z,100147.78
2023-05-14T16:56:41.446Z,100155.00
2023-05-14T16:59:49.207Z,100140.31
2023-05-14T17:02:57.802Z,100138.97
2023-05-14T17:06:06.243Z,100142.53
2023-05-14T17:09:15.550Z,100140.69
2023-05-14T17:12:27.263Z,100129.88
2023-05-14T17:15:36.069Z,100132.37
2023-05-14T17:18:44.258Z,100126.97
2023-05-14T17:21:59.247Z,100117.50
2023-05-14T17:25:10.444Z,100119.44
2023-05-14T17:28:25.337Z,100112.47
2023-05-14T17:31:33.287Z,100113.12
2023-05-14T17:34:41.837Z,100111.81
2023-05-14T17:38:00.657Z,100108.63
2023-05-14T17:41:10.750Z,100093.28
2023-05-14T17:44:19.260Z,100087.06
2023-05-14T17:47:34.333Z,100090.12
2023-05-14T17:50:42.754Z,100089.44
2023-05-14T17:53:51.237Z,100086.72
2023-05-14T17:56:59.878Z,100088.41
2023-05-14T18:00:08.316Z,100088.22
2023-05-14T18:03:23.305Z,100078.59
2023-05-14T18:06:25.478Z,100070.50
2023-05-14T18:09:40.315Z,100064.69
2023-05-14T18:12:42.260Z,100063.63
2023-05-14T18:15:57.270Z,100044.63
2023-05-14T18:19:05.302Z,100054.97
2023-05-14T18:22:20.296Z,100048.19
2023-05-14T18:25:28.583Z,100058.31
2023-05-14T18:28:37.263Z,100078.22
2023-05-14T18:31:52.285Z,100083.78
2023-05-14T18:35:02.045Z,100089.81
2023-05-14T18:38:17.276Z,100077.34
2023-05-14T18:41:33.294Z,100078.19
2023-05-14T18:44:36.396Z,100071.63
2023-05-14T18:47:52.369Z,100061.69
2023-05-14T18:50:54.461Z,100069.44
2023-05-14T18:54:10.272Z,100075.31
2023-05-14T19:00:51.682Z,100072.13
2023-05-14T19:04:01.267Z,100065.91
2023-05-14T19:07:18.599Z,100066.84
2023-05-14T19:10:33.338Z,100063.31
2023-05-14T19:13:42.219Z,100074.78
2023-05-14T19:16:51.316Z,100064.66
2023-05-14T19:20:00.265Z,100064.66
2023-05-14T19:23:09.313Z,100062.12
2023-05-14T19:26:24.278Z,100065.31
2023-05-14T19:29:33.223Z,100054.31
2023-05-14T19:32:41.563Z,100054.31
2023-05-14T19:36:03.398Z,100053.47
2023-05-14T19:39:18.628Z,100048.75
2023-05-14T19:42:27.117Z,100042.69
2023-05-14T19:45:42.353Z,100041.84
2023-05-14T19:48:44.661Z,100034.66
2023-05-14T19:51:59.329Z,100034.78
2023-05-14T19:55:01.243Z,100036.47
2023-05-14T19:58:16.315Z,100046.03
2023-05-14T20:01:18.411Z,100037.75
2023-05-14T20:04:33.506Z,100038.62
2023-05-14T20:07:42.623Z,100043.66
2023-05-14T20:10:51.022Z,100032.88
2023-05-14T20:14:00.018Z,100026.44
2023-05-14T20:17:14.375Z,100028.31
2023-05-14T20:20:23.844Z,100023.37
2023-05-14T20:23:32.335Z,100022.72
2023-05-14T20:26:40.897Z,100023.75
2023-05-14T20:29:56.058Z,100011.28
2023-05-14T20:32:57.956Z,100015.25
2023-05-14T20:36:13.448Z,100011.03
2023-05-14T20:39:28.355Z,100000.53
2023-05-14T20:42:37.680Z,100006.41
2023-05-14T20:45:46.444Z,99999.13
2023-05-14T20:48:56.739Z,99991.22
2023-05-14T20:52:11.366Z,99978.75
2023-05-14T20:55:13.385Z,99980.44
2023-05-14T20:58:28.334Z,99977.09
2023-05-14T21:01:43.431Z,99979.59
2023-05-14T21:04:51.966Z,99965.91
2023-05-14T21:08:06.824Z,99965.06
2023-05-14T21:11:14.921Z,99953.63
2023-05-14T21:14:29.651Z,99957.28
2023-05-14T21:17:31.369Z,99967.06
2023-05-14T21:20:47.629Z,99948.16
2023-05-14T21:23:49.639Z,99954.41
2023-05-14T21:27:05.227Z,99949.31
2023-05-14T21:30:14.269Z,99940.19
2023-05-14T21:33:22.430Z,99940.19
2023-05-14T21:36:45.106Z,99941.22
2023-05-14T21:39:59.397Z,99929.91
2023-05-14T21:43:08.061Z,99909.44
2023-05-14T21:46:23.110Z,99894.34
2023-05-14T21:49:24.725Z,99892.28
2023-05-14T21:52:39.423Z,99888.59
2023-05-14T21:55:47.369Z,99879.34
2023-05-14T21:59:02.394Z,99885.78
2023-05-14T22:02:07.284Z,99887.25
2023-05-14T22:05:22.530Z,99884.94
2023-05-14T22:08:24.346Z,99892.66
2023-05-14T22:11:39.780Z,99888.09
2023-05-14T22:14:41.445Z,99893.31
2023-05-14T22:17:56.452Z,99893.81
2023-05-14T22:21:04.378Z,99900.22
2023-05-14T22:24:12.890Z,99891.81
2023-05-14T22:27:27.398Z,99901.34
2023-05-14T22:30:29.054Z,99896.59
2023-05-14T22:33:43.410Z,99893.34
2023-05-14T22:36:51.430Z,99891.31
2023-05-14T22:40:07.253Z,99890.09
2023-05-14T22:43:15.522Z,99890.28
2023-05-14T22:46:24.153Z,99886.34
2023-05-14T22:49:32.382Z,99892.44
2023-05-14T22:52:50.461Z,99886.84
2023-05-14T22:55:52.312Z,99896.44
2023-05-14T22:59:07.465Z,99900.81
2023-05-14T23:02:09.289Z,99899.50
2023-05-14T23:05:24.663Z,99887.03
2023-05-14T23:08:33.422Z,99883.31
2023-05-14T23:12:05.439Z,99887.69
2023-05-14T23:15:14.814Z,99879.13
2023-05-14T23:18:23.043Z,99881.84
2023-05-14T23:21:31.446Z,99873.88
2023-05-14T23:24:46.427Z,99866.81
2023-05-14T23:27:54.994Z,99851.28
2023-05-14T23:31:03.453Z,99845.22
2023-05-14T23:34:12.065Z,99833.13
2023-05-14T23:37:20.722Z,99827.56
2023-05-14T23:40:35.433Z,99831.09
2023-05-14T23:43:37.532Z,99830.25
2023-05-14T23:46:52.529Z,99833.97
2023-05-14T23:50:22.711Z,99826.53
2023-05-14T23:53:27.377Z,99813.88
2023-05-14T23:56:43.463Z,99814.06
2023-05-14T23:59:45.193Z,99801.19
